LIMC METAR and TAF | Updated Today

LIMC METAR

Malpensa International Airport

Observation time: 11 min. ago

LIMC 060850Z VRB01KT CAVOK 03/01 Q1009 NOSIG

Need help? Read our tutorial on how to read METARs or read the parsed version below.

Malpensa International Airport (LIMC) METAR

  • Weather conditions on Mon, 06 Dec 2021 08:50:00 +0000 (11 min. ago):
  • Present conditions: Dry
  • Clouds: Clear skies
  • Visibility: Greater than 10 km
  • Wind: Variable at 1 knots
  • Temperature: 3 celsius
  • Dew point: 1 celsius
  • Pressure: 1009 millibars
  • Remarks: None


Useful to know...

LIMC TAF

Malpensa International Airport

TAF LIMC 060500Z 0606/0712 VRB05KT 3000 BR SCT030 BECMG 0608/0610 9999
Observation time: 4:01 hr. ago
Need help? Read our tutorial on how to read TAFs or read the parsed version below.

Parsed version of TAF for Malpensa International Airport (LIMC)

  • From 06 December at 06:00 UTC, to day 07 of the month at 12:00 UTC
  • Clouds: Scattered at 914 meters
  • Visibility: 3000 meters
  • Wind: Variable at 5
  • Other: Mist
  • Expected to arise soon, from 06 December at 08:00 UTC, to day 06 of the month at 10:00 UTC
  • Visibility: Greater than 10 km